Azure — ZCEE2 — position and weather

sailwx.info

Track history (hours):
 
Tides and Currents Weather Stations Pressure Air Temp Water Temp Dewpoint Dewpoint Depression Visibility Wind Speed Wind Dir Waves Ship Positions

Azure

Last reported at 2015-Aug-31 21:24 UTC. Time now 2015-Sep-01 08:00 UTC.
Position N 50°15' W 001°55'.

Length 289 m; draft 8.6 m.

Type: Ship. MMSI: 310610000.

Date/timePositionNaut miles runAvg speedWind from/ knotsBaromVisibWave heightAir tempDewpointWater temp
2015-Aug-31 21:24N 50°15' W 001°55'2512.9
2015-Aug-31 19:29N 50°26' W 001°21'1314.2
2015-Aug-31 18:33N 50°33' W 001°03'1111.3
2015-Aug-31 17:33N 50°44' W 001°04'1212.0
2015-Aug-31 16:33N 50°51' W 001°20'4 3.4
2015-Aug-31 15:27N 50°54' W 001°24'0 0.0
2015-Aug-31 14:30N 50°54' W 001°24'0 0.0
2015-Aug-31 13:30N 50°54' W 001°24'0 0.0
2015-Aug-31 12:27N 50°54' W 001°24'0 0.0
2015-Aug-31 11:30N 50°54' W 001°24'0 0.0
2015-Aug-31 10:30N 50°54' W 001°24'0 0.0
2015-Aug-31 09:30N 50°54' W 001°24'0 0.0
2015-Aug-31 08:27N 50°54' W 001°24'0 0.0
2015-Aug-31 07:30N 50°54' W 001°24'0 0.0
2015-Aug-31 06:33N 50°54' W 001°24'0 0.1
2015-Aug-31 05:33N 50°54' W 001°24'7 7.5
2015-Aug-31 04:33N 50°47' W 001°19'1514.6
2015-Aug-31 03:33N 50°41' W 000°58'1010.3
2015-Aug-31 02:33N 50°32' W 001°06'1010.0
2015-Aug-31 01:33N 50°27' W 001°20'75 4.1
2015-Aug-30 07:10N 49°28' W 002°30'14 7.2
2015-Aug-30 05:17N 49°18' W 002°45'1719.4
2015-Aug-30 04:26N 49°12' W 003°09'4519.7
2015-Aug-30 02:09N 48°55' W 004°13'1119.1
2015-Aug-30 01:33N 48°51' W 004°29'3517.4
2015-Aug-29 23:33N 48°36' W 005°16'57111.9
2015-Aug-27 23:26N 39°37' W 009°38'1314.5
2015-Aug-27 22:33N 39°26' W 009°46'1414.0
2015-Aug-27 21:34N 39°12' W 009°48'1413.6
2015-Aug-27 20:33N 38°59' W 009°43'1413.8
2015-Aug-27 19:33N 38°45' W 009°42'1111.0
2015-Aug-27 18:33N 38°36' W 009°34'1313.0
2015-Aug-27 17:33N 38°40' W 009°18'8 8.3
2015-Aug-27 16:33N 38°43' W 009°08'0 0.0
2015-Aug-27 15:33N 38°43' W 009°08'0 0.0
2015-Aug-27 14:33N 38°43' W 009°08'0 0.0
2015-Aug-27 13:29N 38°43' W 009°08'0 0.0
2015-Aug-27 12:32N 38°43' W 009°08'0 0.0
2015-Aug-27 11:33N 38°43' W 009°08'0 0.0
2015-Aug-27 10:33N 38°43' W 009°08'0 0.0
2015-Aug-27 09:29N 38°43' W 009°08'0 0.0
2015-Aug-27 08:32N 38°43' W 009°08'0 0.0
2015-Aug-27 07:33N 38°43' W 009°08'1212.3
2015-Aug-27 06:34N 38°38' W 009°22'6 6.4
2015-Aug-27 05:34N 38°32' W 009°26'1616.2
2015-Aug-27 04:33N 38°16' W 009°25'1717.3
2015-Aug-27 03:33N 37°58' W 009°24'1717.3
2015-Aug-27 02:33N 37°41' W 009°23'1717.2
2015-Aug-27 01:33N 37°24' W 009°21'1817.7
2015-Aug-27 00:34N 37°06' W 009°20'1716.6
2015-Aug-26 23:33N 36°50' W 009°14'1616.4
2015-Aug-26 22:33N 36°43' W 008°55'1717.1
2015-Aug-26 21:33N 36°42' W 008°34'1717.0
2015-Aug-26 20:33N 36°40' W 008°13'1717.0
2015-Aug-26 19:33N 36°39' W 007°52'1717.2
2015-Aug-26 18:34N 36°38' W 007°31'6 0.3
2015-Aug-26 01:32N 36°32' W 007°33'1717.8
2015-Aug-26 00:33N 36°32' W 007°54'1817.6
2015-Aug-25 23:33N 36°30' W 008°16'1716.9
2015-Aug-25 22:33N 36°30' W 008°37'1716.7
2015-Aug-25 21:34N 36°32' W 008°58'1716.8
2015-Aug-25 20:34N 36°35' W 009°18'1716.8
2015-Aug-25 19:34N 36°48' W 009°32'1716.9
2015-Aug-25 18:33N 37°04' W 009°36'1717.1
2015-Aug-25 17:34N 37°21' W 009°41'1716.7
2015-Aug-25 16:34N 37°37' W 009°46'1616.3
2015-Aug-25 15:34N 37°53' W 009°50'1616.4
2015-Aug-25 14:34N 38°09' W 009°55'1716.9
2015-Aug-25 13:34N 38°25' W 009°60'1717.4
2015-Aug-25 12:33N 38°42' W 010°05'1717.4
2015-Aug-25 11:33N 38°60' W 010°06'1717.3
2015-Aug-25 10:33N 39°17' W 010°06'1716.6
2015-Aug-25 09:33N 39°34' W 010°05'1716.8
2015-Aug-25 08:33N 39°50' W 010°05'1716.7
2015-Aug-25 07:33N 40°07' W 010°05'  
2015-Aug-22 23:19N 50°00' W 002°46'3215.0
2015-Aug-22 21:10N 50°12' W 001°59'1516.0
2015-Aug-22 20:14N 50°20' W 001°39'1116.7
2015-Aug-22 19:33N 50°25' W 001°24'1716.9
2015-Aug-22 18:33N 50°34' W 001°02'1212.1
2015-Aug-22 17:34N 50°46' W 001°09'9 9.1
2015-Aug-22 16:33N 50°51' W 001°20'5 4.4
2015-Aug-22 15:30N 50°54' W 001°26'0 0.0
2015-Aug-22 14:09N 50°54' W 001°26'0 0.0
2015-Aug-22 13:03N 50°54' W 001°26'0 0.0
2015-Aug-22 12:18N 50°54' W 001°26'0 0.0
2015-Aug-22 11:27N 50°54' W 001°26'0 0.0
2015-Aug-22 10:21N 50°54' W 001°26'0 0.0
2015-Aug-22 09:33N 50°54' W 001°26'0 0.0
2015-Aug-22 08:27N 50°54' W 001°26'0 0.0
2015-Aug-22 07:33N 50°54' W 001°26'0 0.0
2015-Aug-22 06:33N 50°54' W 001°26'2 1.5
2015-Aug-22 05:34N 50°53' W 001°24'8 8.5
2015-Aug-22 04:34N 50°47' W 001°15'1515.4
2015-Aug-22 03:33N 50°38' W 000°55'2121.0
2015-Aug-22 02:34N 50°34' W 000°22'2121.0
2015-Aug-22 01:33N 50°34' E 000°11'2120.7
2015-Aug-22 00:33N 50°39' E 000°42'2221.8
2015-Aug-21 23:34N 50°52' E 001°11'2423.7
2015-Aug-21 22:34N 51°08' E 001°39'2322.9
2015-Aug-21 21:34N 51°26' E 002°00'  
Track history (hours):
 
Tides and Currents Weather Stations Pressure Air Temp Water Temp Dewpoint Dewpoint Depression Visibility Wind Speed Wind Dir Waves Ship Positions

Azure

Last reported at 2015-Aug-31 21:24 UTC. Time now 2015-Sep-01 08:00 UTC.
Position N 50°15' W 001°55'.

Length 289 m; draft 8.6 m.

Type: Ship. MMSI: 310610000.

Date/timePositionNaut miles runAvg speedWind from/ knotsBaromVisibWave heightAir tempDewpointWater temp
2015-Aug-31 21:24N 50°15' W 001°55'2512.9
2015-Aug-31 19:29N 50°26' W 001°21'1314.2
2015-Aug-31 18:33N 50°33' W 001°03'1111.3
2015-Aug-31 17:33N 50°44' W 001°04'1212.0
2015-Aug-31 16:33N 50°51' W 001°20'4 3.4
2015-Aug-31 15:27N 50°54' W 001°24'0 0.0
2015-Aug-31 14:30N 50°54' W 001°24'0 0.0
2015-Aug-31 13:30N 50°54' W 001°24'0 0.0
2015-Aug-31 12:27N 50°54' W 001°24'0 0.0
2015-Aug-31 11:30N 50°54' W 001°24'0 0.0
2015-Aug-31 10:30N 50°54' W 001°24'0 0.0
2015-Aug-31 09:30N 50°54' W 001°24'0 0.0
2015-Aug-31 08:27N 50°54' W 001°24'0 0.0
2015-Aug-31 07:30N 50°54' W 001°24'0 0.0
2015-Aug-31 06:33N 50°54' W 001°24'0 0.1
2015-Aug-31 05:33N 50°54' W 001°24'7 7.5
2015-Aug-31 04:33N 50°47' W 001°19'1514.6
2015-Aug-31 03:33N 50°41' W 000°58'1010.3
2015-Aug-31 02:33N 50°32' W 001°06'1010.0
2015-Aug-31 01:33N 50°27' W 001°20'75 4.1
2015-Aug-30 07:10N 49°28' W 002°30'14 7.2
2015-Aug-30 05:17N 49°18' W 002°45'1719.4
2015-Aug-30 04:26N 49°12' W 003°09'4519.7
2015-Aug-30 02:09N 48°55' W 004°13'1119.1
2015-Aug-30 01:33N 48°51' W 004°29'3517.4
2015-Aug-29 23:33N 48°36' W 005°16'57111.9
2015-Aug-27 23:26N 39°37' W 009°38'1314.5
2015-Aug-27 22:33N 39°26' W 009°46'1414.0
2015-Aug-27 21:34N 39°12' W 009°48'1413.6
2015-Aug-27 20:33N 38°59' W 009°43'1413.8
2015-Aug-27 19:33N 38°45' W 009°42'1111.0
2015-Aug-27 18:33N 38°36' W 009°34'1313.0
2015-Aug-27 17:33N 38°40' W 009°18'8 8.3
2015-Aug-27 16:33N 38°43' W 009°08'0 0.0
2015-Aug-27 15:33N 38°43' W 009°08'0 0.0
2015-Aug-27 14:33N 38°43' W 009°08'0 0.0
2015-Aug-27 13:29N 38°43' W 009°08'0 0.0
2015-Aug-27 12:32N 38°43' W 009°08'0 0.0
2015-Aug-27 11:33N 38°43' W 009°08'0 0.0
2015-Aug-27 10:33N 38°43' W 009°08'0 0.0
2015-Aug-27 09:29N 38°43' W 009°08'0 0.0
2015-Aug-27 08:32N 38°43' W 009°08'0 0.0
2015-Aug-27 07:33N 38°43' W 009°08'1212.3
2015-Aug-27 06:34N 38°38' W 009°22'6 6.4
2015-Aug-27 05:34N 38°32' W 009°26'1616.2
2015-Aug-27 04:33N 38°16' W 009°25'1717.3
2015-Aug-27 03:33N 37°58' W 009°24'1717.3
2015-Aug-27 02:33N 37°41' W 009°23'1717.2
2015-Aug-27 01:33N 37°24' W 009°21'1817.7
2015-Aug-27 00:34N 37°06' W 009°20'1716.6
2015-Aug-26 23:33N 36°50' W 009°14'1616.4
2015-Aug-26 22:33N 36°43' W 008°55'1717.1
2015-Aug-26 21:33N 36°42' W 008°34'1717.0
2015-Aug-26 20:33N 36°40' W 008°13'1717.0
2015-Aug-26 19:33N 36°39' W 007°52'1717.2
2015-Aug-26 18:34N 36°38' W 007°31'6 0.3
2015-Aug-26 01:32N 36°32' W 007°33'1717.8
2015-Aug-26 00:33N 36°32' W 007°54'1817.6
2015-Aug-25 23:33N 36°30' W 008°16'1716.9
2015-Aug-25 22:33N 36°30' W 008°37'1716.7
2015-Aug-25 21:34N 36°32' W 008°58'1716.8
2015-Aug-25 20:34N 36°35' W 009°18'1716.8
2015-Aug-25 19:34N 36°48' W 009°32'1716.9
2015-Aug-25 18:33N 37°04' W 009°36'1717.1
2015-Aug-25 17:34N 37°21' W 009°41'1716.7
2015-Aug-25 16:34N 37°37' W 009°46'1616.3
2015-Aug-25 15:34N 37°53' W 009°50'1616.4
2015-Aug-25 14:34N 38°09' W 009°55'1716.9
2015-Aug-25 13:34N 38°25' W 009°60'1717.4
2015-Aug-25 12:33N 38°42' W 010°05'1717.4
2015-Aug-25 11:33N 38°60' W 010°06'1717.3
2015-Aug-25 10:33N 39°17' W 010°06'1716.6
2015-Aug-25 09:33N 39°34' W 010°05'1716.8
2015-Aug-25 08:33N 39°50' W 010°05'1716.7
2015-Aug-25 07:33N 40°07' W 010°05'  
2015-Aug-22 23:19N 50°00' W 002°46'3215.0
2015-Aug-22 21:10N 50°12' W 001°59'1516.0
2015-Aug-22 20:14N 50°20' W 001°39'1116.7
2015-Aug-22 19:33N 50°25' W 001°24'1716.9
2015-Aug-22 18:33N 50°34' W 001°02'1212.1
2015-Aug-22 17:34N 50°46' W 001°09'9 9.1
2015-Aug-22 16:33N 50°51' W 001°20'5 4.4
2015-Aug-22 15:30N 50°54' W 001°26'0 0.0
2015-Aug-22 14:09N 50°54' W 001°26'0 0.0
2015-Aug-22 13:03N 50°54' W 001°26'0 0.0
2015-Aug-22 12:18N 50°54' W 001°26'0 0.0
2015-Aug-22 11:27N 50°54' W 001°26'0 0.0
2015-Aug-22 10:21N 50°54' W 001°26'0 0.0
2015-Aug-22 09:33N 50°54' W 001°26'0 0.0
2015-Aug-22 08:27N 50°54' W 001°26'0 0.0
2015-Aug-22 07:33N 50°54' W 001°26'0 0.0
2015-Aug-22 06:33N 50°54' W 001°26'2 1.5
2015-Aug-22 05:34N 50°53' W 001°24'8 8.5
2015-Aug-22 04:34N 50°47' W 001°15'1515.4
2015-Aug-22 03:33N 50°38' W 000°55'2121.0
2015-Aug-22 02:34N 50°34' W 000°22'2121.0
2015-Aug-22 01:33N 50°34' E 000°11'2120.7
2015-Aug-22 00:33N 50°39' E 000°42'2221.8
2015-Aug-21 23:34N 50°52' E 001°11'2423.7
2015-Aug-21 22:34N 51°08' E 001°39'2322.9
2015-Aug-21 21:34N 51°26' E 002°00'  

Dump ship's entire track history